Delta Virtual Airport Information Service

Houston William P. Hobby Airport

ICAO: KHOU Country: United States
Latitude: 29.6454 Longitude: -95.2788
Latest Arrival : DAC8320 (KDFW-KHOU) Latest Departure : SWA1146 (F) (KHOU-KCRP)


WX CaptureLIVE
Data provided by noaa.gov | Fetched at 21:49:16

METAR : KHOU 250153Z 10007KT 10SM BKN036 BKN060 20/13 A2998 RMK AO2 SLP155 T02000133

TAF : KHOU 250113Z 2501/2524 35005KT P6SM OVC035 FM251100 VRB03KT P6SM BKN025 FM251700 18007KT P6SM BKN025 BKN045


Runway Data for KHOU
Data provided by openaviationdata.com

Runway ID Mag Var Hdg Length Elevation Surface ILS Freq ILS Id ILS Slope
4 5 38° 7609 ft 46 ft Concrete 109.9 IHUB 3
12L 5 129° 5152 ft 46 ft Concrete -- -- --
12R 5 129° 7607 ft 46 ft Asphalt 111.3 IPRQ 3
17 5 173° 6015 ft 46 ft Asphalt -- -- --
22 5 218° 7609 ft 46 ft Concrete 109.9 IOIB 0
30L 5 309° 7607 ft 46 ft Asphalt 111.3 IUPU 3
30R 5 309° 5152 ft 46 ft Concrete -- -- --
35 5 353° 6015 ft 46 ft Asphalt -- -- --

Houston William P. Hobby Airport, United States
Use only for reference purposes



Not for navigational purposes.